sensor_id;sensor_type;location;lat;lon;timestamp;pressure;altitude;pressure_sealevel;temperature;humidity
39141;BME280;24875;48.436;10.298;2022-12-31T00:02:01;96184.34;;;11.43;100.00
39141;BME280;24875;48.436;10.298;2022-12-31T00:04:27;96165.69;;;11.59;100.00
39141;BME280;24875;48.436;10.298;2022-12-31T00:06:54;96171.16;;;11.57;100.00
39141;BME280;24875;48.436;10.298;2022-12-31T00:09:20;96171.22;;;11.64;100.00
39141;BME280;24875;48.436;10.298;2022-12-31T00:11:47;96168.47;;;11.72;100.00
39141;BME280;24875;48.436;10.298;2022-12-31T00:14:14;96177.03;;;11.74;100.00
39141;BME280;24875;48.436;10.298;2022-12-31T00:16:41;96183.97;;;11.75;100.00
39141;BME280;24875;48.436;10.298;2022-12-31T00:19:09;96176.66;;;11.77;100.00
39141;BME280;24875;48.436;10.298;2022-12-31T00:21:36;96187.59;;;11.74;100.00
39141;BME280;24875;48.436;10.298;2022-12-31T00:24:05;96184.19;;;11.80;100.00
39141;BME280;24875;48.436;10.298;2022-12-31T00:26:33;96188.94;;;11.84;100.00
39141;BME280;24875;48.436;10.298;2022-12-31T00:29:00;96186.38;;;11.91;100.00
39141;BME280;24875;48.436;10.298;2022-12-31T00:31:30;96196.41;;;11.95;100.00
39141;BME280;24875;48.436;10.298;2022-12-31T00:33:58;96192.38;;;11.85;100.00
39141;BME280;24875;48.436;10.298;2022-12-31T00:36:26;96198.56;;;11.92;100.00
39141;BME280;24875;48.436;10.298;2022-12-31T00:38:54;96206.38;;;12.00;100.00
39141;BME280;24875;48.436;10.298;2022-12-31T00:41:22;96207.91;;;12.09;100.00
39141;BME280;24875;48.436;10.298;2022-12-31T00:43:49;96212.91;;;12.04;100.00
39141;BME280;24875;48.436;10.298;2022-12-31T00:46:16;96209.94;;;12.07;100.00
39141;BME280;24875;48.436;10.298;2022-12-31T00:48:44;96222.56;;;12.11;100.00
39141;BME280;24875;48.436;10.298;2022-12-31T00:51:14;96218.00;;;12.19;100.00
39141;BME280;24875;48.436;10.298;2022-12-31T00:53:41;96237.59;;;12.11;100.00
39141;BME280;24875;48.436;10.298;2022-12-31T00:56:10;96241.31;;;12.16;100.00
39141;BME280;24875;48.436;10.298;2022-12-31T00:58:37;96237.59;;;12.11;100.00
39141;BME280;24875;48.436;10.298;2022-12-31T01:01:07;96238.09;;;12.20;100.00
39141;BME280;24875;48.436;10.298;2022-12-31T01:03:34;96244.88;;;12.09;100.00
39141;BME280;24875;48.436;10.298;2022-12-31T01:06:02;96247.41;;;12.16;100.00
39141;BME280;24875;48.436;10.298;2022-12-31T01:08:28;96256.25;;;12.09;100.00
39141;BME280;24875;48.436;10.298;2022-12-31T01:10:56;96254.00;;;12.06;100.00
39141;BME280;24875;48.436;10.298;2022-12-31T01:13:40;96246.16;;;12.13;100.00
39141;BME280;24875;48.436;10.298;2022-12-31T01:16:08;96252.69;;;12.16;100.00
39141;BME280;24875;48.436;10.298;2022-12-31T01:18:34;96253.81;;;12.08;100.00
39141;BME280;24875;48.436;10.298;2022-12-31T01:21:04;96265.34;;;12.21;100.00
39141;BME280;24875;48.436;10.298;2022-12-31T01:23:30;96262.91;;;12.19;100.00
39141;BME280;24875;48.436;10.298;2022-12-31T01:25:59;96258.22;;;12.21;100.00
39141;BME280;24875;48.436;10.298;2022-12-31T01:28:26;96265.34;;;12.21;100.00
39141;BME280;24875;48.436;10.298;2022-12-31T01:30:52;96266.16;;;12.21;100.00
39141;BME280;24875;48.436;10.298;2022-12-31T01:33:19;96260.06;;;12.21;100.00
39141;BME280;24875;48.436;10.298;2022-12-31T01:35:45;96264.50;;;12.20;100.00
39141;BME280;24875;48.436;10.298;2022-12-31T01:38:13;96271.16;;;12.31;100.00
39141;BME280;24875;48.436;10.298;2022-12-31T01:40:40;96257.75;;;12.32;100.00
39141;BME280;24875;48.436;10.298;2022-12-31T01:43:12;96262.28;;;12.38;100.00
39141;BME280;24875;48.436;10.298;2022-12-31T01:45:40;96269.72;;;12.28;100.00
39141;BME280;24875;48.436;10.298;2022-12-31T01:48:09;96271.84;;;12.39;100.00
39141;BME280;24875;48.436;10.298;2022-12-31T01:50:38;96276.31;;;12.39;100.00
39141;BME280;24875;48.436;10.298;2022-12-31T01:53:06;96292.91;;;12.33;100.00
39141;BME280;24875;48.436;10.298;2022-12-31T01:55:37;96286.38;;;12.29;100.00
39141;BME280;24875;48.436;10.298;2022-12-31T01:58:09;96285.63;;;12.35;100.00
39141;BME280;24875;48.436;10.298;2022-12-31T02:00:36;96280.28;;;12.14;100.00
39141;BME280;24875;48.436;10.298;2022-12-31T02:03:04;96282.19;;;12.20;100.00
39141;BME280;24875;48.436;10.298;2022-12-31T02:05:34;96286.94;;;12.24;100.00
39141;BME280;24875;48.436;10.298;2022-12-31T02:08:04;96290.06;;;12.14;100.00
39141;BME280;24875;48.436;10.298;2022-12-31T02:10:31;96287.34;;;12.07;100.00
39141;BME280;24875;48.436;10.298;2022-12-31T02:12:59;96291.25;;;12.11;100.00
39141;BME280;24875;48.436;10.298;2022-12-31T02:15:33;96298.84;;;12.20;100.00
39141;BME280;24875;48.436;10.298;2022-12-31T02:18:09;96302.25;;;12.15;100.00
39141;BME280;24875;48.436;10.298;2022-12-31T02:21:14;96300.63;;;12.14;100.00
39141;BME280;24875;48.436;10.298;2022-12-31T02:24:06;96307.38;;;12.02;100.00
39141;BME280;24875;48.436;10.298;2022-12-31T02:26:44;96304.75;;;12.02;100.00
39141;BME280;24875;48.436;10.298;2022-12-31T02:32:29;96311.81;;;12.01;100.00
39141;BME280;24875;48.436;10.298;2022-12-31T02:35:00;96309.22;;;11.87;100.00
39141;BME280;24875;48.436;10.298;2022-12-31T02:37:31;96311.69;;;11.74;100.00
39141;BME280;24875;48.436;10.298;2022-12-31T02:39:59;96311.78;;;11.66;100.00
39141;BME280;24875;48.436;10.298;2022-12-31T02:42:26;96313.94;;;11.62;100.00
39141;BME280;24875;48.436;10.298;2022-12-31T02:44:53;96314.38;;;11.52;100.00
39141;BME280;24875;48.436;10.298;2022-12-31T02:47:29;96304.00;;;11.64;100.00
39141;BME280;24875;48.436;10.298;2022-12-31T02:50:12;96302.66;;;11.54;100.00
39141;BME280;24875;48.436;10.298;2022-12-31T02:52:47;96303.00;;;11.51;100.00
39141;BME280;24875;48.436;10.298;2022-12-31T02:55:24;96309.72;;;11.39;100.00
39141;BME280;24875;48.436;10.298;2022-12-31T02:58:01;96319.63;;;11.37;100.00
39141;BME280;24875;48.436;10.298;2022-12-31T03:00:32;96325.19;;;11.42;100.00
39141;BME280;24875;48.436;10.298;2022-12-31T03:03:21;96327.91;;;11.34;100.00
39141;BME280;24875;48.436;10.298;2022-12-31T03:05:47;96336.69;;;11.27;100.00
39141;BME280;24875;48.436;10.298;2022-12-31T03:08:20;96334.97;;;11.34;100.00
39141;BME280;24875;48.436;10.298;2022-12-31T03:10:46;96341.41;;;11.17;100.00
39141;BME280;24875;48.436;10.298;2022-12-31T03:13:12;96347.25;;;11.27;100.00
39141;BME280;24875;48.436;10.298;2022-12-31T03:15:38;96352.56;;;11.41;100.00
39141;BME280;24875;48.436;10.298;2022-12-31T03:18:07;96352.19;;;11.44;100.00
39141;BME280;24875;48.436;10.298;2022-12-31T03:20:37;96355.28;;;11.48;100.00
39141;BME280;24875;48.436;10.298;2022-12-31T03:23:23;96353.38;;;11.42;100.00
39141;BME280;24875;48.436;10.298;2022-12-31T03:25:50;96356.56;;;11.37;100.00
39141;BME280;24875;48.436;10.298;2022-12-31T03:28:19;96353.34;;;11.27;100.00
39141;BME280;24875;48.436;10.298;2022-12-31T03:30:49;96354.56;;;11.39;100.00
39141;BME280;24875;48.436;10.298;2022-12-31T03:33:16;96363.25;;;11.25;100.00
39141;BME280;24875;48.436;10.298;2022-12-31T03:35:45;96355.75;;;11.37;100.00
39141;BME280;24875;48.436;10.298;2022-12-31T03:38:12;96370.53;;;11.23;100.00
39141;BME280;24875;48.436;10.298;2022-12-31T03:40:42;96364.84;;;11.34;100.00
39141;BME280;24875;48.436;10.298;2022-12-31T03:43:09;96382.03;;;11.30;100.00
39141;BME280;24875;48.436;10.298;2022-12-31T03:45:36;96368.34;;;11.27;100.00
39141;BME280;24875;48.436;10.298;2022-12-31T03:48:05;96366.81;;;11.32;100.00
39141;BME280;24875;48.436;10.298;2022-12-31T03:50:32;96365.16;;;11.31;100.00
39141;BME280;24875;48.436;10.298;2022-12-31T03:53:00;96355.56;;;11.38;100.00
39141;BME280;24875;48.436;10.298;2022-12-31T03:55:26;96354.63;;;11.31;100.00
39141;BME280;24875;48.436;10.298;2022-12-31T03:57:53;96356.84;;;11.42;100.00
39141;BME280;24875;48.436;10.298;2022-12-31T04:00:20;96351.41;;;11.58;100.00
39141;BME280;24875;48.436;10.298;2022-12-31T04:02:48;96347.19;;;11.49;100.00
39141;BME280;24875;48.436;10.298;2022-12-31T04:05:16;96353.88;;;11.59;100.00
39141;BME280;24875;48.436;10.298;2022-12-31T04:07:43;96350.72;;;11.64;100.00
39141;BME280;24875;48.436;10.298;2022-12-31T04:10:13;96348.72;;;11.66;100.00
39141;BME280;24875;48.436;10.298;2022-12-31T04:12:39;96352.47;;;11.49;100.00
39141;BME280;24875;48.436;10.298;2022-12-31T04:15:07;96358.16;;;11.60;100.00
39141;BME280;24875;48.436;10.298;2022-12-31T04:17:34;96369.09;;;11.57;100.00
39141;BME280;24875;48.436;10.298;2022-12-31T04:20:01;96363.63;;;11.59;100.00
39141;BME280;24875;48.436;10.298;2022-12-31T04:22:28;96373.00;;;11.61;100.00
39141;BME280;24875;48.436;10.298;2022-12-31T04:24:54;96371.66;;;11.80;100.00
39141;BME280;24875;48.436;10.298;2022-12-31T04:27:22;96366.94;;;11.90;100.00
39141;BME280;24875;48.436;10.298;2022-12-31T04:29:48;96375.84;;;11.89;100.00
39141;BME280;24875;48.436;10.298;2022-12-31T04:32:15;96377.28;;;11.91;100.00
39141;BME280;24875;48.436;10.298;2022-12-31T04:34:41;96382.78;;;11.90;100.00
39141;BME280;24875;48.436;10.298;2022-12-31T04:37:08;96373.28;;;11.81;100.00
39141;BME280;24875;48.436;10.298;2022-12-31T04:39:34;96375.41;;;12.00;100.00
39141;BME280;24875;48.436;10.298;2022-12-31T04:42:01;96377.75;;;12.09;100.00
39141;BME280;24875;48.436;10.298;2022-12-31T04:44:28;96384.13;;;12.29;100.00
39141;BME280;24875;48.436;10.298;2022-12-31T04:46:55;96380.41;;;12.23;100.00
39141;BME280;24875;48.436;10.298;2022-12-31T04:49:24;96397.63;;;12.34;100.00
39141;BME280;24875;48.436;10.298;2022-12-31T04:51:51;96400.22;;;12.48;100.00
39141;BME280;24875;48.436;10.298;2022-12-31T04:54:17;96397.25;;;12.51;100.00
39141;BME280;24875;48.436;10.298;2022-12-31T04:56:43;96392.19;;;12.56;100.00
39141;BME280;24875;48.436;10.298;2022-12-31T04:59:10;96384.53;;;12.61;100.00
39141;BME280;24875;48.436;10.298;2022-12-31T05:01:38;96383.25;;;12.72;100.00
39141;BME280;24875;48.436;10.298;2022-12-31T05:04:05;96392.19;;;12.56;100.00
39141;BME280;24875;48.436;10.298;2022-12-31T05:06:31;96388.28;;;12.52;100.00
39141;BME280;24875;48.436;10.298;2022-12-31T05:08:58;96380.44;;;12.59;100.00
39141;BME280;24875;48.436;10.298;2022-12-31T05:11:24;96390.56;;;12.55;100.00
39141;BME280;24875;48.436;10.298;2022-12-31T05:13:51;96387.56;;;12.58;100.00
39141;BME280;24875;48.436;10.298;2022-12-31T05:16:17;96400.78;;;12.58;100.00
39141;BME280;24875;48.436;10.298;2022-12-31T05:18:45;96404.63;;;12.76;100.00
39141;BME280;24875;48.436;10.298;2022-12-31T05:21:16;96404.38;;;12.86;100.00
39141;BME280;24875;48.436;10.298;2022-12-31T05:23:43;96406.84;;;12.87;100.00
39141;BME280;24875;48.436;10.298;2022-12-31T05:26:10;96412.59;;;12.91;100.00
39141;BME280;24875;48.436;10.298;2022-12-31T05:28:36;96419.53;;;12.92;100.00
39141;BME280;24875;48.436;10.298;2022-12-31T05:31:03;96423.03;;;12.99;100.00
39141;BME280;24875;48.436;10.298;2022-12-31T05:33:29;96425.63;;;12.92;100.00
39141;BME280;24875;48.436;10.298;2022-12-31T05:35:57;96424.44;;;12.95;100.00
39141;BME280;24875;48.436;10.298;2022-12-31T05:38:24;96415.59;;;12.88;100.00
39141;BME280;24875;48.436;10.298;2022-12-31T05:40:58;96408.63;;;13.01;100.00
39141;BME280;24875;48.436;10.298;2022-12-31T05:43:24;96401.00;;;12.77;100.00
39141;BME280;24875;48.436;10.298;2022-12-31T05:45:51;96406.47;;;12.76;100.00
39141;BME280;24875;48.436;10.298;2022-12-31T05:48:17;96415.06;;;12.64;100.00
39141;BME280;24875;48.436;10.298;2022-12-31T05:50:44;96408.88;;;12.57;100.00
39141;BME280;24875;48.436;10.298;2022-12-31T05:53:11;96399.13;;;12.57;100.00
39141;BME280;24875;48.436;10.298;2022-12-31T05:55:38;96415.94;;;12.35;100.00
39141;BME280;24875;48.436;10.298;2022-12-31T05:58:04;96411.47;;;12.36;100.00
39141;BME280;24875;48.436;10.298;2022-12-31T06:00:31;96422.78;;;12.16;100.00
39141;BME280;24875;48.436;10.298;2022-12-31T06:02:57;96405.91;;;12.16;100.00
39141;BME280;24875;48.436;10.298;2022-12-31T06:05:24;96409.66;;;12.22;100.00
39141;BME280;24875;48.436;10.298;2022-12-31T06:07:50;96423.78;;;12.15;100.00
39141;BME280;24875;48.436;10.298;2022-12-31T06:10:18;96417.22;;;12.25;100.00
39141;BME280;24875;48.436;10.298;2022-12-31T06:12:44;96415.13;;;12.35;100.00
39141;BME280;24875;48.436;10.298;2022-12-31T06:15:11;96424.75;;;12.28;100.00
39141;BME280;24875;48.436;10.298;2022-12-31T06:17:37;96425.41;;;12.30;100.00
39141;BME280;24875;48.436;10.298;2022-12-31T06:20:05;96435.97;;;12.30;100.00
39141;BME280;24875;48.436;10.298;2022-12-31T06:22:31;96426.41;;;12.29;100.00
39141;BME280;24875;48.436;10.298;2022-12-31T06:24:58;96425.69;;;12.35;100.00
39141;BME280;24875;48.436;10.298;2022-12-31T06:27:26;96429.69;;;12.45;100.00
39141;BME280;24875;48.436;10.298;2022-12-31T06:29:52;96434.63;;;12.34;100.00
39141;BME280;24875;48.436;10.298;2022-12-31T06:32:18;96437.16;;;12.27;100.00
39141;BME280;24875;48.436;10.298;2022-12-31T06:34:45;96433.69;;;12.27;100.00
39141;BME280;24875;48.436;10.298;2022-12-31T06:37:11;96439.16;;;12.25;100.00
39141;BME280;24875;48.436;10.298;2022-12-31T06:39:38;96435.44;;;12.20;100.00
39141;BME280;24875;48.436;10.298;2022-12-31T06:42:04;96427.50;;;12.20;100.00
39141;BME280;24875;48.436;10.298;2022-12-31T06:44:32;96437.16;;;12.27;100.00
39141;BME280;24875;48.436;10.298;2022-12-31T06:46:59;96447.56;;;12.15;100.00
39141;BME280;24875;48.436;10.298;2022-12-31T06:49:25;96443.25;;;12.14;100.00
39141;BME280;24875;48.436;10.298;2022-12-31T06:51:52;96450.19;;;12.15;100.00
39141;BME280;24875;48.436;10.298;2022-12-31T06:54:18;96448.16;;;12.16;100.00
39141;BME280;24875;48.436;10.298;2022-12-31T06:56:45;96436.81;;;12.16;100.00
39141;BME280;24875;48.436;10.298;2022-12-31T06:59:22;96438.72;;;12.36;100.00
39141;BME280;24875;48.436;10.298;2022-12-31T07:02:02;96452.38;;;12.25;100.00
39141;BME280;24875;48.436;10.298;2022-12-31T07:04:50;96449.19;;;12.30;100.00
39141;BME280;24875;48.436;10.298;2022-12-31T07:07:26;96448.72;;;12.26;100.00
39141;BME280;24875;48.436;10.298;2022-12-31T07:10:02;96450.75;;;12.24;100.00
39141;BME280;24875;48.436;10.298;2022-12-31T07:12:44;96446.66;;;12.22;100.00
39141;BME280;24875;48.436;10.298;2022-12-31T07:15:19;96455.47;;;12.29;100.00
39141;BME280;24875;48.436;10.298;2022-12-31T07:17:56;96444.72;;;12.30;100.00
39141;BME280;24875;48.436;10.298;2022-12-31T07:20:27;96450.19;;;12.15;100.00
39141;BME280;24875;48.436;10.298;2022-12-31T07:22:54;96464.50;;;12.20;100.00
39141;BME280;24875;48.436;10.298;2022-12-31T07:25:22;96472.25;;;12.36;100.00
39141;BME280;24875;48.436;10.298;2022-12-31T07:27:59;96479.91;;;12.45;100.00
39141;BME280;24875;48.436;10.298;2022-12-31T07:30:35;96493.94;;;12.46;100.00
39141;BME280;24875;48.436;10.298;2022-12-31T07:33:24;96500.34;;;12.51;100.00
39141;BME280;24875;48.436;10.298;2022-12-31T07:36:04;96496.13;;;12.42;100.00
39141;BME280;24875;48.436;10.298;2022-12-31T07:38:39;96489.00;;;12.28;100.00
39141;BME280;24875;48.436;10.298;2022-12-31T07:41:13;96498.03;;;12.19;100.00
39141;BME280;24875;48.436;10.298;2022-12-31T07:43:49;96499.03;;;12.18;100.00
39141;BME280;24875;48.436;10.298;2022-12-31T07:46:27;96500.72;;;12.12;100.00
39141;BME280;24875;48.436;10.298;2022-12-31T07:48:57;96496.09;;;12.14;100.00
39141;BME280;24875;48.436;10.298;2022-12-31T07:51:24;96508.44;;;11.99;100.00
39141;BME280;24875;48.436;10.298;2022-12-31T07:53:51;96499.53;;;12.00;100.00
39141;BME280;24875;48.436;10.298;2022-12-31T07:56:18;96506.09;;;12.04;100.00
39141;BME280;24875;48.436;10.298;2022-12-31T07:58:52;96499.03;;;12.18;100.00
39141;BME280;24875;48.436;10.298;2022-12-31T08:01:32;96504.22;;;12.26;100.00
39141;BME280;24875;48.436;10.298;2022-12-31T08:04:04;96493.94;;;12.31;100.00
39141;BME280;24875;48.436;10.298;2022-12-31T08:06:40;96499.22;;;12.31;100.00
39141;BME280;24875;48.436;10.298;2022-12-31T08:09:23;96504.78;;;12.51;100.00
39141;BME280;24875;48.436;10.298;2022-12-31T08:11:55;96509.53;;;12.70;100.00
39141;BME280;24875;48.436;10.298;2022-12-31T08:14:22;96508.72;;;12.69;100.00
39141;BME280;24875;48.436;10.298;2022-12-31T08:16:49;96514.88;;;12.76;100.00
39141;BME280;24875;48.436;10.298;2022-12-31T08:19:22;96511.88;;;12.79;100.00
39141;BME280;24875;48.436;10.298;2022-12-31T08:22:02;96505.25;;;12.83;100.00
39141;BME280;24875;48.436;10.298;2022-12-31T08:24:41;96513.09;;;12.91;100.00
39141;BME280;24875;48.436;10.298;2022-12-31T08:27:19;96515.75;;;12.91;100.00
39141;BME280;24875;48.436;10.298;2022-12-31T08:29:57;96511.72;;;12.80;100.00
39141;BME280;24875;48.436;10.298;2022-12-31T08:32:32;96515.16;;;12.95;100.00
39141;BME280;24875;48.436;10.298;2022-12-31T08:35:05;96507.97;;;13.04;100.00
39141;BME280;24875;48.436;10.298;2022-12-31T08:37:41;96520.28;;;12.97;100.00
39141;BME280;24875;48.436;10.298;2022-12-31T08:40:18;96522.34;;;13.16;100.00
39141;BME280;24875;48.436;10.298;2022-12-31T08:43:01;96529.44;;;13.30;100.00
39141;BME280;24875;48.436;10.298;2022-12-31T08:45:34;96522.75;;;13.34;100.00
39141;BME280;24875;48.436;10.298;2022-12-31T08:48:06;96510.53;;;13.33;100.00
39141;BME280;24875;48.436;10.298;2022-12-31T08:50:37;96510.84;;;13.23;100.00
39141;BME280;24875;48.436;10.298;2022-12-31T08:53:04;96523.53;;;13.28;100.00
39141;BME280;24875;48.436;10.298;2022-12-31T08:55:31;96525.31;;;13.27;100.00
39141;BME280;24875;48.436;10.298;2022-12-31T08:58:07;96530.41;;;13.64;100.00
39141;BME280;24875;48.436;10.298;2022-12-31T09:00:39;96527.78;;;13.64;100.00
39141;BME280;24875;48.436;10.298;2022-12-31T09:03:15;96534.75;;;13.92;99.36
39141;BME280;24875;48.436;10.298;2022-12-31T09:05:53;96546.00;;;13.94;99.39
39141;BME280;24875;48.436;10.298;2022-12-31T09:08:28;96548.47;;;13.96;99.17
39141;BME280;24875;48.436;10.298;2022-12-31T09:11:00;96554.41;;;13.98;99.17
39141;BME280;24875;48.436;10.298;2022-12-31T09:13:39;96549.91;;;13.98;98.49
39141;BME280;24875;48.436;10.298;2022-12-31T09:16:13;96550.78;;;14.05;98.43
39141;BME280;24875;48.436;10.298;2022-12-31T09:18:44;96549.31;;;14.02;97.36
39141;BME280;24875;48.436;10.298;2022-12-31T09:21:13;96560.91;;;14.16;98.21
39141;BME280;24875;48.436;10.298;2022-12-31T09:23:40;96564.56;;;14.15;97.18
39141;BME280;24875;48.436;10.298;2022-12-31T09:26:15;96558.94;;;14.24;97.55
39141;BME280;24875;48.436;10.298;2022-12-31T09:28:52;96556.53;;;14.29;97.05
39141;BME280;24875;48.436;10.298;2022-12-31T09:31:28;96554.47;;;14.25;98.06
39141;BME280;24875;48.436;10.298;2022-12-31T09:34:02;96559.25;;;14.15;99.02
39141;BME280;24875;48.436;10.298;2022-12-31T09:36:36;96557.09;;;14.25;97.25
39141;BME280;24875;48.436;10.298;2022-12-31T09:39:09;96563.09;;;14.33;96.44
39141;BME280;24875;48.436;10.298;2022-12-31T09:42:11;96570.41;;;14.31;96.51
39141;BME280;24875;48.436;10.298;2022-12-31T09:45:16;96576.53;;;14.32;95.47
39141;BME280;24875;48.436;10.298;2022-12-31T09:51:07;96578.03;;;14.41;94.74
39141;BME280;24875;48.436;10.298;2022-12-31T09:53:52;96585.22;;;14.47;94.40
39141;BME280;24875;48.436;10.298;2022-12-31T09:56:28;96580.31;;;14.44;94.88
39141;BME280;24875;48.436;10.298;2022-12-31T09:59:02;96587.41;;;14.64;95.22
39141;BME280;24875;48.436;10.298;2022-12-31T10:01:38;96585.91;;;14.55;94.63
39141;BME280;24875;48.436;10.298;2022-12-31T10:04:38;96579.84;;;14.67;94.32
39141;BME280;24875;48.436;10.298;2022-12-31T10:07:31;96576.88;;;14.77;94.09
39141;BME280;24875;48.436;10.298;2022-12-31T10:10:12;96571.91;;;14.67;94.30
39141;BME280;24875;48.436;10.298;2022-12-31T10:13:10;96570.81;;;14.56;95.88
39141;BME280;24875;48.436;10.298;2022-12-31T10:16:00;96565.88;;;14.80;95.02
39141;BME280;24875;48.436;10.298;2022-12-31T10:18:38;96576.25;;;14.48;96.11
39141;BME280;24875;48.436;10.298;2022-12-31T10:21:27;96576.84;;;14.70;94.72
39141;BME280;24875;48.436;10.298;2022-12-31T10:24:21;96574.78;;;14.72;94.53
39141;BME280;24875;48.436;10.298;2022-12-31T10:26:57;96578.03;;;14.68;95.16
39141;BME280;24875;48.436;10.298;2022-12-31T10:29:36;96571.19;;;14.80;94.83
39141;BME280;24875;48.436;10.298;2022-12-31T10:32:15;96572.06;;;14.87;93.59
39141;BME280;24875;48.436;10.298;2022-12-31T10:34:51;96566.06;;;14.78;94.53
39141;BME280;24875;48.436;10.298;2022-12-31T10:37:23;96564.47;;;14.84;94.96
39141;BME280;24875;48.436;10.298;2022-12-31T10:39:59;96562.09;;;14.95;93.20
39141;BME280;24875;48.436;10.298;2022-12-31T10:42:57;96561.94;;;15.03;92.59
39141;BME280;24875;48.436;10.298;2022-12-31T10:46:10;96560.59;;;15.20;91.56
39141;BME280;24875;48.436;10.298;2022-12-31T10:49:09;96554.50;;;15.26;90.90
39141;BME280;24875;48.436;10.298;2022-12-31T10:52:16;96565.34;;;15.31;89.84
39141;BME280;24875;48.436;10.298;2022-12-31T10:55:27;96566.41;;;15.36;90.02
39141;BME280;24875;48.436;10.298;2022-12-31T10:58:22;96559.91;;;15.39;90.89
39141;BME280;24875;48.436;10.298;2022-12-31T11:01:03;96551.13;;;15.45;91.66
39141;BME280;24875;48.436;10.298;2022-12-31T11:03:50;96552.00;;;15.58;91.27
39141;BME280;24875;48.436;10.298;2022-12-31T11:06:43;96545.47;;;15.61;90.56
39141;BME280;24875;48.436;10.298;2022-12-31T11:12:41;96547.91;;;15.69;90.47
39141;BME280;24875;48.436;10.298;2022-12-31T11:15:28;96544.66;;;15.73;90.87
39141;BME280;24875;48.436;10.298;2022-12-31T11:18:03;96545.06;;;15.77;91.00
39141;BME280;24875;48.436;10.298;2022-12-31T11:20:47;96541.19;;;15.79;89.44
39141;BME280;24875;48.436;10.298;2022-12-31T11:23:25;96535.06;;;15.79;89.14
39141;BME280;24875;48.436;10.298;2022-12-31T11:26:04;96531.00;;;15.83;88.68
39141;BME280;24875;48.436;10.298;2022-12-31T11:28:48;96538.56;;;16.05;88.19
39141;BME280;24875;48.436;10.298;2022-12-31T11:31:33;96531.22;;;16.07;87.02
39141;BME280;24875;48.436;10.298;2022-12-31T11:34:18;96523.66;;;16.04;87.47
39141;BME280;24875;48.436;10.298;2022-12-31T11:37:00;96508.53;;;16.11;87.01
39141;BME280;24875;48.436;10.298;2022-12-31T11:39:41;96501.97;;;16.20;87.04
39141;BME280;24875;48.436;10.298;2022-12-31T11:42:19;96505.06;;;16.23;87.13
39141;BME280;24875;48.436;10.298;2022-12-31T11:44:52;96501.78;;;16.08;87.55
39141;BME280;24875;48.436;10.298;2022-12-31T11:47:41;96503.84;;;16.26;87.06
39141;BME280;24875;48.436;10.298;2022-12-31T11:50:31;96507.94;;;16.41;86.73
39141;BME280;24875;48.436;10.298;2022-12-31T11:53:14;96507.09;;;16.34;87.06
39141;BME280;24875;48.436;10.298;2022-12-31T11:55:57;96506.50;;;16.45;86.18
39141;BME280;24875;48.436;10.298;2022-12-31T11:58:25;96508.31;;;16.19;88.37
39141;BME280;24875;48.436;10.298;2022-12-31T12:00:55;96509.19;;;16.32;86.78
39141;BME280;24875;48.436;10.298;2022-12-31T12:03:23;96508.34;;;16.45;87.02
39141;BME280;24875;48.436;10.298;2022-12-31T12:05:50;96506.72;;;16.31;86.90
39141;BME280;24875;48.436;10.298;2022-12-31T12:08:16;96497.28;;;16.41;86.71
39141;BME280;24875;48.436;10.298;2022-12-31T12:10:44;96487.06;;;16.45;87.17
39141;BME280;24875;48.436;10.298;2022-12-31T12:13:18;96480.88;;;16.63;86.08
39141;BME280;24875;48.436;10.298;2022-12-31T12:15:47;96485.38;;;16.63;85.88
39141;BME280;24875;48.436;10.298;2022-12-31T12:18:25;96475.34;;;16.78;85.58
39141;BME280;24875;48.436;10.298;2022-12-31T12:20:59;96474.50;;;16.71;86.25
39141;BME280;24875;48.436;10.298;2022-12-31T12:23:26;96462.88;;;16.65;86.27
39141;BME280;24875;48.436;10.298;2022-12-31T12:25:52;96467.56;;;16.63;85.60
39141;BME280;24875;48.436;10.298;2022-12-31T12:28:20;96454.25;;;16.76;85.65
39141;BME280;24875;48.436;10.298;2022-12-31T12:30:53;96462.78;;;16.91;85.61
39141;BME280;24875;48.436;10.298;2022-12-31T12:33:21;96455.19;;;16.95;86.82
39141;BME280;24875;48.436;10.298;2022-12-31T12:35:48;96447.53;;;17.17;86.10
39141;BME280;24875;48.436;10.298;2022-12-31T12:38:16;96452.00;;;17.17;83.51
39141;BME280;24875;48.436;10.298;2022-12-31T12:40:53;96449.16;;;17.25;83.70
39141;BME280;24875;48.436;10.298;2022-12-31T12:43:22;96455.53;;;17.11;84.49
39141;BME280;24875;48.436;10.298;2022-12-31T12:45:49;96447.16;;;17.08;84.16
39141;BME280;24875;48.436;10.298;2022-12-31T12:48:20;96453.25;;;17.27;84.59
39141;BME280;24875;48.436;10.298;2022-12-31T12:50:52;96446.31;;;17.13;85.56
39141;BME280;24875;48.436;10.298;2022-12-31T12:53:29;96445.84;;;17.23;85.65
39141;BME280;24875;48.436;10.298;2022-12-31T12:56:07;96449.53;;;17.22;85.27
39141;BME280;24875;48.436;10.298;2022-12-31T12:58:47;96441.97;;;17.25;85.52
39141;BME280;24875;48.436;10.298;2022-12-31T13:01:25;96441.75;;;17.27;85.61
39141;BME280;24875;48.436;10.298;2022-12-31T13:04:07;96436.22;;;17.28;85.83
39141;BME280;24875;48.436;10.298;2022-12-31T13:06:53;96448.28;;;17.31;86.01
39141;BME280;24875;48.436;10.298;2022-12-31T13:09:33;96433.16;;;17.31;85.74
39141;BME280;24875;48.436;10.298;2022-12-31T13:12:13;96440.31;;;17.31;85.54
39141;BME280;24875;48.436;10.298;2022-12-31T13:14:44;96433.38;;;17.23;84.99
39141;BME280;24875;48.436;10.298;2022-12-31T13:17:29;96435.19;;;17.29;85.00
39141;BME280;24875;48.436;10.298;2022-12-31T13:20:01;96437.09;;;17.16;84.32
39141;BME280;24875;48.436;10.298;2022-12-31T13:22:33;96439.50;;;17.24;85.10